Archer, Iowa
Current Conditions -  °F | °C
As of 12:15 PM on Thursday 30 Oct 2014 (Local Time) from KSHL Reporting Station
Clear Clear  
Wind Chill: 55°   Ceiling: Unl
Heat Index: 55°   Visibility: 10mi
Dew Point: 36°   Wind: 15mph
Humidity: 47%   Direction: 350°N
Pressure: 30.06"   Gusts: 21mph
Location:  43.12°N, 95.75°W
Report Text: KSHL 301715Z AUTO 35013G18KT 10SM CLR 13/02 A3006 RMK AO2
Loading
Personal Weather Stations






























Interactive Weather Map
Tropical Storm Tracking
New forecast layout! Learn more

10-Day Weather Forecast

Advertisements
Track Severe Weather on mobile